createdAt,value
2022-08-25T00:00:02.841Z,21.27
2022-08-25T00:00:36.729Z,21.24
2022-08-25T00:01:14.351Z,21.21
2022-08-25T00:01:50.226Z,21.19
2022-08-25T00:02:23.005Z,21.13
2022-08-25T00:02:56.778Z,21.15
2022-08-25T00:03:29.786Z,21.17
2022-08-25T00:04:11.040Z,21.19
2022-08-25T00:04:43.039Z,21.15
2022-08-25T00:05:16.152Z,21.10
2022-08-25T00:05:49.911Z,21.14
2022-08-25T00:06:22.266Z,21.13
2022-08-25T00:06:59.312Z,21.07
2022-08-25T00:07:33.138Z,21.04
2022-08-25T00:08:06.523Z,21.04
2022-08-25T00:08:39.984Z,20.95
2022-08-25T00:09:14.177Z,20.98
2022-08-25T00:09:46.987Z,20.98
2022-08-25T00:10:19.094Z,20.93
2022-08-25T00:10:53.974Z,20.94
2022-08-25T00:11:37.333Z,20.99
2022-08-25T00:12:09.459Z,21.00
2022-08-25T00:12:41.407Z,20.98
2022-08-25T00:13:13.328Z,21.00
2022-08-25T00:13:48.224Z,20.99
2022-08-25T00:14:25.104Z,20.94
2022-08-25T00:14:57.031Z,20.95
2022-08-25T00:15:31.500Z,20.90
2022-08-25T00:16:03.670Z,20.88
2022-08-25T00:16:36.093Z,20.83
2022-08-25T00:17:08.036Z,20.87
2022-08-25T00:17:40.216Z,20.85
2022-08-25T00:18:19.548Z,20.76
2022-08-25T00:18:55.694Z,20.68
2022-08-25T00:19:33.544Z,20.63
2022-08-25T00:20:09.472Z,20.65
2022-08-25T00:20:43.228Z,20.72
2022-08-25T00:21:21.727Z,20.75
2022-08-25T00:21:54.392Z,20.80
2022-08-25T00:22:26.381Z,20.83
2022-08-25T00:22:58.563Z,20.76
2022-08-25T00:23:30.613Z,20.75
2022-08-25T00:24:04.320Z,20.60
2022-08-25T00:24:36.744Z,20.61
2022-08-25T00:25:09.834Z,20.69
2022-08-25T00:25:41.950Z,20.73
2022-08-25T00:26:15.827Z,20.77
2022-08-25T00:26:51.095Z,20.74
2022-08-25T00:27:23.410Z,20.70
2022-08-25T00:27:55.322Z,20.68
2022-08-25T00:28:27.351Z,20.69
2022-08-25T00:29:01.678Z,20.75
2022-08-25T00:29:34.715Z,20.77
2022-08-25T00:30:07.365Z,20.65
2022-08-25T00:30:39.414Z,20.59
2022-08-25T00:31:14.671Z,20.65
2022-08-25T00:31:46.804Z,20.65
2022-08-25T00:32:18.841Z,20.65
2022-08-25T00:32:55.319Z,20.76
2022-08-25T00:33:31.302Z,20.78
2022-08-25T00:34:05.879Z,20.79
2022-08-25T00:34:39.146Z,20.77
2022-08-25T00:35:11.061Z,20.79
2022-08-25T00:35:43.949Z,20.81
2022-08-25T00:36:17.336Z,20.79
2022-08-25T00:36:51.749Z,20.81
2022-08-25T00:37:24.107Z,20.71
2022-08-25T00:37:56.725Z,20.68
2022-08-25T00:38:28.670Z,20.67
2022-08-25T00:39:00.574Z,20.69
2022-08-25T00:39:33.143Z,20.72
2022-08-25T00:40:06.354Z,20.72
2022-08-25T00:40:40.334Z,20.62
2022-08-25T00:41:15.205Z,20.66
2022-08-25T00:41:49.426Z,20.65
2022-08-25T00:42:21.387Z,20.66
2022-08-25T00:42:54.451Z,20.72
2022-08-25T00:43:27.725Z,20.71
2022-08-25T00:44:01.685Z,20.76
2022-08-25T00:44:34.190Z,20.73
2022-08-25T00:45:08.148Z,20.74
2022-08-25T00:45:40.611Z,20.72
2022-08-25T00:46:15.320Z,20.71
2022-08-25T00:46:51.623Z,20.71
2022-08-25T00:47:24.426Z,20.67
2022-08-25T00:47:56.704Z,20.63
2022-08-25T00:48:32.471Z,20.61
2022-08-25T00:49:09.835Z,20.47
2022-08-25T00:49:51.788Z,20.46
2022-08-25T00:50:26.624Z,20.51
2022-08-25T00:50:59.269Z,20.55
2022-08-25T00:51:42.987Z,20.60
2022-08-25T00:52:22.585Z,20.65
2022-08-25T00:52:58.120Z,20.60
2022-08-25T00:53:31.357Z,20.63
2022-08-25T00:54:05.874Z,20.62
2022-08-25T00:54:42.154Z,20.65
2022-08-25T00:55:21.798Z,20.69
2022-08-25T00:55:54.259Z,20.72
2022-08-25T00:56:27.655Z,20.67
2022-08-25T00:57:00.474Z,20.70
2022-08-25T00:57:56.097Z,20.71
2022-08-25T00:58:31.535Z,20.68
2022-08-25T00:59:05.164Z,20.58
2022-08-25T00:59:37.365Z,20.50
2022-08-25T01:00:19.375Z,20.45
2022-08-25T01:00:55.551Z,20.51
2022-08-25T01:01:27.652Z,20.50
2022-08-25T01:02:00.029Z,20.47
2022-08-25T01:02:32.237Z,20.48
2022-08-25T01:03:05.315Z,20.48
2022-08-25T01:03:37.425Z,20.45
2022-08-25T01:04:09.672Z,20.52
2022-08-25T01:04:49.052Z,20.56
2022-08-25T01:05:21.445Z,20.58
2022-08-25T01:05:55.437Z,20.58
2022-08-25T01:06:30.158Z,20.48
2022-08-25T01:07:02.649Z,20.47
2022-08-25T01:07:35.097Z,20.52
2022-08-25T01:08:08.806Z,20.56
2022-08-25T01:08:42.383Z,20.50
2022-08-25T01:09:15.376Z,20.50
2022-08-25T01:09:49.926Z,20.50
2022-08-25T01:10:23.842Z,20.46
2022-08-25T01:10:58.117Z,20.45
2022-08-25T01:11:30.043Z,20.52
2022-08-25T01:12:02.392Z,20.50
2022-08-25T01:12:36.537Z,20.45
2022-08-25T01:13:34.157Z,20.43
2022-08-25T01:14:06.691Z,20.30
2022-08-25T01:14:39.345Z,20.28
2022-08-25T01:15:13.820Z,20.24
2022-08-25T01:15:48.257Z,20.28
2022-08-25T01:16:20.315Z,20.36
2022-08-25T01:16:54.006Z,20.34
2022-08-25T01:17:28.232Z,20.38
2022-08-25T01:18:01.165Z,20.33
2022-08-25T01:19:03.697Z,20.33
2022-08-25T01:19:35.635Z,20.18
2022-08-25T01:20:08.366Z,20.22
2022-08-25T01:20:41.337Z,20.26
2022-08-25T01:21:13.560Z,20.17
2022-08-25T01:21:50.910Z,20.12
2022-08-25T01:22:22.920Z,20.22
2022-08-25T01:22:55.859Z,20.22
2022-08-25T01:23:27.782Z,20.20
2022-08-25T01:24:00.470Z,20.16
2022-08-25T01:25:03.947Z,20.18
2022-08-25T01:26:07.499Z,20.22
2022-08-25T01:26:39.874Z,20.00
2022-08-25T01:27:11.878Z,20.07
2022-08-25T01:27:43.783Z,20.13
2022-08-25T01:28:16.645Z,20.18
2022-08-25T01:29:08.812Z,20.22
2022-08-25T01:29:40.814Z,20.20
2022-08-25T01:30:12.844Z,20.23
2022-08-25T01:30:45.319Z,20.23
2022-08-25T01:31:23.897Z,20.23
2022-08-25T01:32:04.614Z,20.23
2022-08-25T01:32:36.532Z,20.27
2022-08-25T01:33:10.533Z,20.30
2022-08-25T01:33:42.738Z,20.28
2022-08-25T01:34:15.884Z,20.28
2022-08-25T01:34:47.801Z,20.33
2022-08-25T01:35:20.881Z,20.31
2022-08-25T01:35:53.979Z,20.29
2022-08-25T01:36:27.934Z,20.29
2022-08-25T01:37:01.131Z,20.24
2022-08-25T01:37:34.834Z,20.28
2022-08-25T01:38:08.517Z,20.26
2022-08-25T01:38:40.483Z,20.32
2022-08-25T01:39:13.825Z,20.34
2022-08-25T01:39:46.030Z,20.40
2022-08-25T01:40:18.668Z,20.42
2022-08-25T01:40:50.673Z,20.42
2022-08-25T01:41:40.378Z,20.34
2022-08-25T01:42:12.229Z,20.26
2022-08-25T01:43:02.371Z,20.26
2022-08-25T01:43:39.250Z,20.22
2022-08-25T01:44:14.156Z,20.22
2022-08-25T01:44:48.804Z,20.21
2022-08-25T01:45:21.657Z,20.10
2022-08-25T01:45:53.744Z,19.99
2022-08-25T01:46:26.944Z,20.02
2022-08-25T01:46:59.108Z,20.05
2022-08-25T01:47:32.101Z,20.01
2022-08-25T01:48:05.202Z,20.06
2022-08-25T01:48:37.440Z,20.00
2022-08-25T01:49:10.586Z,19.94
2022-08-25T01:49:42.909Z,19.89
2022-08-25T01:50:14.853Z,19.96
2022-08-25T01:50:46.904Z,19.91
2022-08-25T01:51:23.640Z,19.95
2022-08-25T01:52:19.341Z,19.93
2022-08-25T01:53:19.610Z,19.97
2022-08-25T01:53:51.735Z,19.89
2022-08-25T01:54:23.924Z,19.93
2022-08-25T01:54:55.899Z,20.00
2022-08-25T01:55:27.894Z,20.00
2022-08-25T01:56:03.913Z,19.98
2022-08-25T01:56:36.867Z,19.98
2022-08-25T01:57:09.500Z,20.02
2022-08-25T01:57:41.437Z,20.06
2022-08-25T01:58:13.313Z,20.06
2022-08-25T01:58:49.069Z,20.07
2022-08-25T01:59:24.274Z,20.13
2022-08-25T01:59:56.507Z,20.12
2022-08-25T02:00:28.465Z,20.05
2022-08-25T02:01:04.486Z,20.12
2022-08-25T02:01:36.477Z,20.16
2022-08-25T02:02:08.967Z,20.18
2022-08-25T02:02:43.948Z,20.14
2022-08-25T02:03:19.003Z,20.10
2022-08-25T02:03:53.338Z,20.06
2022-08-25T02:04:26.851Z,20.10
2022-08-25T02:04:58.771Z,20.12
2022-08-25T02:05:31.931Z,20.10
2022-08-25T02:06:06.029Z,20.10
2022-08-25T02:06:38.056Z,20.14
2022-08-25T02:07:13.102Z,20.16
2022-08-25T02:07:45.047Z,20.17
2022-08-25T02:08:17.821Z,20.16
2022-08-25T02:08:54.660Z,20.17
2022-08-25T02:09:26.615Z,20.21
2022-08-25T02:09:59.311Z,20.12
2022-08-25T02:10:35.737Z,20.04
2022-08-25T02:11:12.576Z,19.91
2022-08-25T02:11:46.808Z,19.95
2022-08-25T02:12:18.734Z,19.95
2022-08-25T02:12:51.118Z,19.99
2022-08-25T02:13:26.889Z,20.03
2022-08-25T02:14:04.309Z,20.09
2022-08-25T02:14:37.766Z,20.13
2022-08-25T02:15:10.423Z,20.12
2022-08-25T02:15:44.548Z,20.19
2022-08-25T02:16:20.802Z,20.27
2022-08-25T02:16:54.034Z,20.29
2022-08-25T02:17:25.978Z,20.16
2022-08-25T02:17:57.899Z,20.06
2022-08-25T02:18:30.012Z,19.97
2022-08-25T02:19:02.879Z,19.96
2022-08-25T02:19:34.818Z,19.92
2022-08-25T02:20:08.607Z,19.98
2022-08-25T02:20:40.497Z,20.01
2022-08-25T02:21:12.566Z,20.01
2022-08-25T02:21:44.901Z,20.01
2022-08-25T02:22:17.371Z,19.91
2022-08-25T02:22:56.912Z,19.88
2022-08-25T02:23:29.180Z,19.90
2022-08-25T02:24:01.786Z,19.98
2022-08-25T02:24:33.748Z,20.07
2022-08-25T02:25:06.684Z,20.08
2022-08-25T02:25:40.575Z,20.07
2022-08-25T02:26:16.672Z,20.03
2022-08-25T02:26:50.654Z,19.96
2022-08-25T02:27:24.233Z,19.96
2022-08-25T02:27:56.153Z,19.96
2022-08-25T02:28:28.104Z,19.93
2022-08-25T02:29:01.285Z,19.91
2022-08-25T02:29:33.811Z,19.95
2022-08-25T02:30:06.167Z,19.89
2022-08-25T02:30:40.177Z,19.93
2022-08-25T02:31:13.033Z,19.89
2022-08-25T02:31:45.525Z,19.83
2022-08-25T02:32:17.762Z,19.84
2022-08-25T02:32:49.685Z,19.85
2022-08-25T02:33:22.429Z,19.80
2022-08-25T02:33:55.336Z,19.81
2022-08-25T02:34:27.570Z,19.83
2022-08-25T02:34:59.499Z,19.80
2022-08-25T02:35:32.420Z,19.83
2022-08-25T02:36:05.007Z,19.86
2022-08-25T02:36:38.786Z,19.88
2022-08-25T02:37:10.722Z,19.83
2022-08-25T02:37:43.144Z,19.80
2022-08-25T02:38:15.154Z,19.79
2022-08-25T02:38:47.422Z,19.78
2022-08-25T02:39:19.356Z,19.73
2022-08-25T02:39:51.348Z,19.77
2022-08-25T02:40:23.663Z,19.81
2022-08-25T02:40:57.227Z,19.86
2022-08-25T02:41:31.562Z,19.93
2022-08-25T02:42:03.867Z,19.88
2022-08-25T02:42:35.919Z,19.83
2022-08-25T02:43:08.208Z,19.80
2022-08-25T02:43:42.340Z,19.76
2022-08-25T02:44:14.276Z,19.70
2022-08-25T02:44:46.236Z,19.73
2022-08-25T02:45:18.674Z,19.75
2022-08-25T02:45:50.617Z,19.80
2022-08-25T02:46:24.977Z,19.79
2022-08-25T02:46:57.366Z,19.81
2022-08-25T02:47:29.461Z,19.80
2022-08-25T02:48:01.491Z,19.80
2022-08-25T02:48:33.894Z,19.78
2022-08-25T02:49:07.232Z,19.78
2022-08-25T02:49:39.178Z,19.78
2022-08-25T02:50:12.162Z,19.78
2022-08-25T02:50:48.665Z,19.86
2022-08-25T02:51:23.551Z,19.85
2022-08-25T02:51:55.507Z,19.86
2022-08-25T02:52:27.622Z,19.84
2022-08-25T02:52:59.524Z,19.82
2022-08-25T02:53:31.499Z,19.88
2022-08-25T02:54:05.468Z,19.89
2022-08-25T02:54:37.847Z,19.89
2022-08-25T02:55:14.223Z,19.91
2022-08-25T02:55:47.436Z,19.93
2022-08-25T02:56:19.956Z,19.94
2022-08-25T02:56:52.456Z,19.95
2022-08-25T02:57:24.570Z,19.87
2022-08-25T02:57:56.461Z,19.88
2022-08-25T02:58:29.102Z,19.89
2022-08-25T02:59:02.898Z,19.94
2022-08-25T02:59:36.020Z,19.83
2022-08-25T03:00:10.850Z,19.74
2022-08-25T03:00:46.099Z,19.69
2022-08-25T03:01:18.478Z,19.66
2022-08-25T03:01:50.373Z,19.63
2022-08-25T03:02:22.307Z,19.54
2022-08-25T03:02:54.174Z,19.56
2022-08-25T03:03:26.097Z,19.60
2022-08-25T03:03:58.806Z,19.62
2022-08-25T03:04:31.933Z,19.66
2022-08-25T03:05:05.484Z,19.61
2022-08-25T03:05:37.940Z,19.45
2022-08-25T03:06:12.582Z,19.51
2022-08-25T03:06:44.963Z,19.54
2022-08-25T03:07:17.740Z,19.58
2022-08-25T03:07:49.985Z,19.61
2022-08-25T03:08:25.409Z,19.64
2022-08-25T03:08:57.485Z,19.65
2022-08-25T03:09:29.454Z,19.67
2022-08-25T03:10:13.018Z,19.72
2022-08-25T03:10:45.202Z,19.63
2022-08-25T03:11:19.655Z,19.65
2022-08-25T03:11:51.524Z,19.69
2022-08-25T03:12:23.458Z,19.75
2022-08-25T03:12:55.383Z,19.66
2022-08-25T03:13:27.309Z,19.70
2022-08-25T03:13:59.284Z,19.65
2022-08-25T03:14:31.248Z,19.65
2022-08-25T03:15:04.075Z,19.71
2022-08-25T03:15:42.547Z,19.71
2022-08-25T03:16:14.519Z,19.73
2022-08-25T03:16:46.615Z,19.65
2022-08-25T03:17:19.115Z,19.48
2022-08-25T03:17:51.085Z,19.37
2022-08-25T03:18:23.707Z,19.32
2022-08-25T03:18:57.495Z,19.37
2022-08-25T03:19:29.807Z,19.39
2022-08-25T03:20:01.781Z,19.46
2022-08-25T03:20:35.574Z,19.52
2022-08-25T03:21:08.744Z,19.52
2022-08-25T03:21:40.670Z,19.54
2022-08-25T03:22:12.586Z,19.45
2022-08-25T03:22:44.559Z,19.38
2022-08-25T03:23:17.386Z,19.40
2022-08-25T03:23:49.321Z,19.49
2022-08-25T03:24:21.269Z,19.57
2022-08-25T03:25:13.105Z,19.60
2022-08-25T03:26:03.441Z,19.61
2022-08-25T03:26:58.777Z,19.52
2022-08-25T03:27:30.730Z,19.50
2022-08-25T03:28:03.729Z,19.55
2022-08-25T03:28:36.509Z,19.54
2022-08-25T03:29:09.025Z,19.56
2022-08-25T03:29:43.347Z,19.55
2022-08-25T03:30:16.168Z,19.55
2022-08-25T03:30:48.234Z,19.50
2022-08-25T03:31:28.006Z,19.46
2022-08-25T03:32:01.379Z,19.44
2022-08-25T03:32:34.064Z,19.47
2022-08-25T03:33:06.020Z,19.36
2022-08-25T03:33:38.488Z,19.28
2022-08-25T03:34:11.967Z,19.29
2022-08-25T03:34:43.833Z,19.36
2022-08-25T03:35:15.730Z,19.39
2022-08-25T03:35:47.645Z,19.37
2022-08-25T03:36:19.575Z,19.32
2022-08-25T03:36:53.428Z,19.37
2022-08-25T03:37:25.642Z,19.37
2022-08-25T03:37:59.400Z,19.42
2022-08-25T03:38:31.508Z,19.36
2022-08-25T03:39:04.060Z,19.39
2022-08-25T03:39:36.028Z,19.38
2022-08-25T03:40:13.993Z,19.38
2022-08-25T03:40:47.406Z,19.44
2022-08-25T03:41:23.090Z,19.42
2022-08-25T03:41:55.273Z,19.32
2022-08-25T03:42:27.506Z,19.30
2022-08-25T03:42:59.413Z,19.33
2022-08-25T03:43:31.789Z,19.33
2022-08-25T03:44:06.637Z,19.36
2022-08-25T03:44:38.546Z,19.38
2022-08-25T03:45:12.161Z,19.40
2022-08-25T03:45:45.246Z,19.41
2022-08-25T03:46:29.373Z,19.36
2022-08-25T03:47:01.285Z,19.41
2022-08-25T03:47:34.328Z,19.44
2022-08-25T03:48:06.386Z,19.43
2022-08-25T03:48:38.387Z,19.35
2022-08-25T03:49:13.532Z,19.31
2022-08-25T03:49:45.406Z,19.36
2022-08-25T03:50:19.285Z,19.36
2022-08-25T03:50:53.015Z,19.37
2022-08-25T03:51:28.300Z,19.41
2022-08-25T03:52:00.201Z,19.42
2022-08-25T03:52:32.138Z,19.42
2022-08-25T03:53:04.385Z,19.39
2022-08-25T03:53:36.345Z,19.32
2022-08-25T03:54:09.319Z,19.27
2022-08-25T03:54:41.629Z,19.20
2022-08-25T03:55:14.924Z,19.23
2022-08-25T03:55:47.909Z,19.26
2022-08-25T03:56:20.349Z,19.33
2022-08-25T03:56:52.789Z,19.35
2022-08-25T03:57:24.653Z,19.32
2022-08-25T03:57:57.190Z,19.37
2022-08-25T03:58:29.376Z,19.32
2022-08-25T03:59:01.278Z,19.27
2022-08-25T03:59:34.832Z,19.31
2022-08-25T04:00:09.333Z,19.28
2022-08-25T04:00:45.105Z,19.31
2022-08-25T04:01:18.280Z,19.34
2022-08-25T04:01:54.831Z,19.36
2022-08-25T04:02:27.728Z,19.35
2022-08-25T04:02:59.843Z,19.36
2022-08-25T04:03:31.744Z,19.38
2022-08-25T04:04:05.453Z,19.41
2022-08-25T04:04:37.484Z,19.44
2022-08-25T04:05:09.962Z,19.48
2022-08-25T04:05:43.014Z,19.47
2022-08-25T04:06:21.657Z,19.43
2022-08-25T04:06:53.867Z,19.43
2022-08-25T04:07:26.449Z,19.43
2022-08-25T04:07:58.398Z,19.42
2022-08-25T04:08:30.334Z,19.41
2022-08-25T04:09:02.219Z,19.49
2022-08-25T04:09:36.841Z,19.52
2022-08-25T04:10:10.814Z,19.56
2022-08-25T04:10:42.773Z,19.58
2022-08-25T04:11:21.365Z,19.46
2022-08-25T04:11:53.675Z,19.54
2022-08-25T04:12:25.599Z,19.44
2022-08-25T04:12:57.641Z,19.35
2022-08-25T04:13:30.272Z,19.42
2022-08-25T04:14:03.179Z,19.48
2022-08-25T04:14:35.129Z,19.51
2022-08-25T04:15:09.135Z,19.43
2022-08-25T04:15:44.519Z,19.46
2022-08-25T04:16:23.055Z,19.52
2022-08-25T04:16:55.388Z,19.57
2022-08-25T04:17:27.443Z,19.61
2022-08-25T04:17:59.376Z,19.63
2022-08-25T04:18:31.316Z,19.67
2022-08-25T04:19:07.905Z,19.69
2022-08-25T04:19:40.035Z,19.71
2022-08-25T04:20:14.053Z,19.72
2022-08-25T04:20:47.543Z,19.69
2022-08-25T04:21:20.427Z,19.62
2022-08-25T04:21:57.283Z,19.61
2022-08-25T04:22:31.062Z,19.66
2022-08-25T04:23:05.733Z,19.68
2022-08-25T04:23:42.996Z,19.61
2022-08-25T04:24:15.634Z,19.66
2022-08-25T04:24:47.519Z,19.73
2022-08-25T04:25:19.504Z,19.81
2022-08-25T04:25:51.419Z,19.76
2022-08-25T04:26:27.154Z,19.73
2022-08-25T04:26:59.170Z,19.76
2022-08-25T04:27:31.482Z,19.71
2022-08-25T04:28:03.697Z,19.66
2022-08-25T04:28:35.716Z,19.66
2022-08-25T04:29:09.926Z,19.71
2022-08-25T04:29:41.882Z,19.74
2022-08-25T04:30:14.719Z,19.74
2022-08-25T04:30:51.457Z,19.71
2022-08-25T04:31:24.070Z,19.78
2022-08-25T04:31:56.216Z,19.79
2022-08-25T04:32:28.422Z,19.75
2022-08-25T04:33:02.401Z,19.80
2022-08-25T04:33:35.156Z,19.88
2022-08-25T04:34:13.423Z,19.91
2022-08-25T04:34:59.900Z,19.83
2022-08-25T04:35:31.844Z,19.77
2022-08-25T04:36:11.492Z,19.79
2022-08-25T04:36:44.658Z,19.79
2022-08-25T04:37:24.633Z,19.72
2022-08-25T04:37:56.628Z,19.75
2022-08-25T04:38:28.866Z,19.82
2022-08-25T04:39:00.790Z,19.84
2022-08-25T04:39:32.904Z,19.87
2022-08-25T04:40:05.751Z,19.88
2022-08-25T04:40:37.758Z,19.93
2022-08-25T04:41:11.005Z,19.99
2022-08-25T04:41:43.144Z,19.93
2022-08-25T04:42:15.336Z,19.89
2022-08-25T04:42:48.151Z,19.84
2022-08-25T04:43:20.293Z,19.85
2022-08-25T04:43:53.339Z,19.89
2022-08-25T04:44:25.568Z,19.89
2022-08-25T04:44:57.517Z,19.83
2022-08-25T04:45:29.523Z,19.78
2022-08-25T04:46:11.334Z,19.82
2022-08-25T04:46:43.983Z,19.89
2022-08-25T04:47:16.006Z,19.80
2022-08-25T04:47:50.667Z,19.78
2022-08-25T04:48:26.716Z,19.77
2022-08-25T04:48:59.985Z,19.81
2022-08-25T04:49:32.038Z,19.84
2022-08-25T04:50:04.302Z,19.84
2022-08-25T04:50:39.290Z,19.91
2022-08-25T04:51:14.676Z,19.93
2022-08-25T04:51:47.062Z,19.94
2022-08-25T04:52:19.059Z,20.00
2022-08-25T04:52:50.968Z,20.02
2022-08-25T04:53:22.930Z,20.10
2022-08-25T04:53:55.288Z,20.11
2022-08-25T04:54:28.293Z,20.15
2022-08-25T04:55:00.425Z,20.18
2022-08-25T04:55:32.350Z,20.20
2022-08-25T04:56:16.116Z,20.24
2022-08-25T04:56:49.647Z,20.22
2022-08-25T04:57:22.093Z,20.28
2022-08-25T04:57:54.103Z,20.37
2022-08-25T04:58:27.576Z,20.39
2022-08-25T04:59:07.743Z,20.43
2022-08-25T04:59:40.018Z,20.53
2022-08-25T05:00:12.940Z,20.51
2022-08-25T05:00:46.774Z,20.53
2022-08-25T05:01:21.676Z,20.46
2022-08-25T05:01:54.052Z,20.47
2022-08-25T05:02:26.030Z,20.53
2022-08-25T05:02:58.032Z,20.58
2022-08-25T05:03:31.160Z,20.52
2022-08-25T05:04:05.653Z,20.56
2022-08-25T05:04:37.935Z,20.51
2022-08-25T05:05:10.200Z,20.50
2022-08-25T05:05:42.523Z,20.48
2022-08-25T05:06:16.268Z,20.46
2022-08-25T05:06:48.811Z,20.47
2022-08-25T05:07:20.892Z,20.52
2022-08-25T05:07:53.175Z,20.53
2022-08-25T05:08:25.453Z,20.59
2022-08-25T05:08:58.887Z,20.67
2022-08-25T05:09:32.474Z,20.69
2022-08-25T05:10:05.214Z,20.71
2022-08-25T05:10:41.714Z,20.80
2022-08-25T05:11:18.119Z,20.86
2022-08-25T05:11:50.031Z,20.89
2022-08-25T05:12:22.244Z,20.96
2022-08-25T05:12:54.477Z,20.98
2022-08-25T05:13:27.141Z,21.02
2022-08-25T05:14:01.559Z,21.07
2022-08-25T05:14:33.693Z,21.07
2022-08-25T05:15:25.900Z,21.13
2022-08-25T05:16:00.429Z,21.15
2022-08-25T05:16:32.657Z,21.23
2022-08-25T05:17:04.662Z,21.26
2022-08-25T05:17:36.590Z,21.29
2022-08-25T05:18:08.579Z,21.30
2022-08-25T05:18:41.148Z,21.37
2022-08-25T05:19:13.341Z,21.39
2022-08-25T05:19:45.272Z,21.44
2022-08-25T05:20:17.172Z,21.46
2022-08-25T05:20:50.360Z,21.51
2022-08-25T05:21:25.789Z,21.53
2022-08-25T05:21:58.298Z,21.59
2022-08-25T05:22:30.604Z,21.64
2022-08-25T05:23:02.515Z,21.63
2022-08-25T05:23:34.956Z,21.66
2022-08-25T05:24:07.764Z,21.69
2022-08-25T05:24:39.659Z,21.71
2022-08-25T05:25:12.101Z,21.74
2022-08-25T05:25:44.514Z,21.77
2022-08-25T05:26:27.342Z,21.80
2022-08-25T05:26:59.837Z,21.84
2022-08-25T05:27:34.169Z,21.84
2022-08-25T05:28:06.280Z,21.83
2022-08-25T05:28:41.842Z,21.92
2022-08-25T05:29:14.499Z,21.99
2022-08-25T05:29:46.567Z,22.06
2022-08-25T05:30:18.622Z,22.07
2022-08-25T05:30:50.625Z,22.11
2022-08-25T05:31:24.719Z,22.12
2022-08-25T05:31:56.696Z,22.17
2022-08-25T05:32:29.096Z,22.20
2022-08-25T05:33:03.197Z,22.24
2022-08-25T05:33:36.530Z,22.24
2022-08-25T05:34:08.928Z,22.28
2022-08-25T05:34:40.871Z,22.33
2022-08-25T05:35:12.959Z,22.35
2022-08-25T05:35:45.179Z,22.38
2022-08-25T05:36:18.291Z,22.41
2022-08-25T05:36:51.178Z,22.39
2022-08-25T05:37:23.299Z,22.45
2022-08-25T05:37:57.366Z,22.51
2022-08-25T05:38:29.519Z,22.51
2022-08-25T05:39:01.565Z,22.46
2022-08-25T05:39:33.852Z,22.51
2022-08-25T05:40:07.158Z,22.54
2022-08-25T05:40:39.161Z,22.61
2022-08-25T05:41:15.453Z,22.60
2022-08-25T05:41:47.342Z,22.66
2022-08-25T05:42:19.452Z,22.77
2022-08-25T05:42:51.483Z,22.84
2022-08-25T05:43:26.199Z,22.84
2022-08-25T05:43:59.050Z,22.87
2022-08-25T05:44:31.463Z,22.88
2022-08-25T05:45:07.887Z,22.98
2022-08-25T05:45:40.661Z,23.04
2022-08-25T05:46:13.210Z,23.09
2022-08-25T05:46:45.231Z,23.08
2022-08-25T05:47:17.142Z,23.16
2022-08-25T05:47:49.544Z,23.23
2022-08-25T05:48:21.787Z,23.30
2022-08-25T05:48:54.411Z,23.33
2022-08-25T05:49:26.423Z,23.36
2022-08-25T05:49:58.314Z,23.40
2022-08-25T05:50:31.158Z,23.43
2022-08-25T05:51:06.187Z,23.43
2022-08-25T05:51:38.792Z,23.39
2022-08-25T05:52:13.333Z,23.29
2022-08-25T05:52:48.312Z,23.36
2022-08-25T05:53:21.633Z,23.45
2022-08-25T05:53:54.138Z,23.50
2022-08-25T05:54:26.048Z,23.59
2022-08-25T05:54:58.036Z,23.59
2022-08-25T05:55:30.006Z,23.54
2022-08-25T05:56:03.065Z,23.60
2022-08-25T05:56:35.047Z,23.70
2022-08-25T05:57:07.289Z,23.76
2022-08-25T05:57:39.293Z,23.82
2022-08-25T05:58:11.506Z,23.89
2022-08-25T05:58:46.502Z,23.95
2022-08-25T05:59:18.740Z,24.02
2022-08-25T05:59:50.652Z,24.03
2022-08-25T06:00:22.882Z,24.10
2022-08-25T06:00:56.962Z,24.17
2022-08-25T06:01:48.388Z,24.14
2022-08-25T06:02:38.736Z,24.11
2022-08-25T06:03:10.873Z,24.22
2022-08-25T06:03:42.887Z,24.31
2022-08-25T06:04:18.223Z,24.36
2022-08-25T06:04:50.255Z,24.40
2022-08-25T06:05:23.358Z,24.44
2022-08-25T06:06:07.275Z,24.53
2022-08-25T06:06:40.238Z,24.61
2022-08-25T06:07:12.161Z,24.66
2022-08-25T06:07:45.416Z,24.68
2022-08-25T06:08:17.321Z,24.69
2022-08-25T06:08:49.479Z,24.73
2022-08-25T06:09:22.614Z,24.77
2022-08-25T06:09:54.551Z,24.82
2022-08-25T06:10:27.384Z,24.91
2022-08-25T06:11:00.567Z,24.98
2022-08-25T06:11:32.553Z,25.01
2022-08-25T06:12:04.726Z,24.95
2022-08-25T06:12:41.691Z,24.92
2022-08-25T06:13:15.581Z,24.91
2022-08-25T06:13:50.117Z,25.01
2022-08-25T06:14:23.254Z,25.01
2022-08-25T06:14:55.178Z,24.99
2022-08-25T06:15:27.946Z,24.93
2022-08-25T06:16:00.967Z,24.92
2022-08-25T06:16:33.181Z,25.04
2022-08-25T06:17:05.358Z,24.97
2022-08-25T06:17:40.892Z,25.00
2022-08-25T06:18:12.821Z,25.08
2022-08-25T06:18:44.792Z,25.17
2022-08-25T06:19:17.395Z,25.21
2022-08-25T06:19:49.330Z,25.26
2022-08-25T06:20:25.826Z,25.24
2022-08-25T06:20:57.883Z,25.22
2022-08-25T06:21:30.615Z,25.34
2022-08-25T06:22:02.686Z,25.36
2022-08-25T06:22:34.585Z,25.32
2022-08-25T06:23:06.526Z,25.38
2022-08-25T06:23:38.995Z,25.46
2022-08-25T06:24:15.344Z,25.51
2022-08-25T06:24:48.302Z,25.59
2022-08-25T06:25:23.227Z,25.63
2022-08-25T06:25:56.588Z,25.67
2022-08-25T06:26:28.513Z,25.69
2022-08-25T06:27:00.808Z,25.75
2022-08-25T06:27:33.485Z,25.82
2022-08-25T06:28:05.447Z,25.87
2022-08-25T06:28:37.767Z,25.90
2022-08-25T06:29:09.640Z,25.92
2022-08-25T06:29:41.958Z,26.00
2022-08-25T06:30:16.551Z,26.01
2022-08-25T06:30:48.482Z,26.10
2022-08-25T06:31:22.364Z,26.16
2022-08-25T06:31:54.561Z,26.18
2022-08-25T06:32:26.837Z,26.12
2022-08-25T06:32:58.886Z,26.22
2022-08-25T06:33:31.183Z,26.25
2022-08-25T06:34:03.214Z,26.25
2022-08-25T06:34:35.204Z,26.30
2022-08-25T06:35:10.518Z,26.35
2022-08-25T06:35:43.743Z,26.37
2022-08-25T06:36:16.334Z,26.37
2022-08-25T06:36:49.050Z,26.36
2022-08-25T06:37:25.152Z,26.32
2022-08-25T06:37:58.037Z,26.37
2022-08-25T06:38:32.043Z,26.46
2022-08-25T06:39:04.453Z,26.49
2022-08-25T06:39:36.431Z,26.55
2022-08-25T06:40:10.120Z,26.57
2022-08-25T06:40:42.054Z,26.53
2022-08-25T06:41:14.638Z,26.55
2022-08-25T06:41:51.456Z,26.60
2022-08-25T06:42:23.482Z,26.70
2022-08-25T06:42:55.400Z,26.76
2022-08-25T06:43:27.852Z,26.80
2022-08-25T06:44:04.857Z,26.85
2022-08-25T06:44:37.622Z,26.87
2022-08-25T06:45:10.214Z,26.87
2022-08-25T06:45:44.208Z,26.85
2022-08-25T06:46:19.288Z,26.72
2022-08-25T06:46:51.421Z,26.81
2022-08-25T06:47:23.504Z,26.80
2022-08-25T06:47:59.432Z,26.64
2022-08-25T06:48:31.689Z,26.54
2022-08-25T06:49:05.811Z,26.57
2022-08-25T06:49:37.883Z,26.67
2022-08-25T06:50:10.363Z,26.79
2022-08-25T06:50:43.041Z,26.85
2022-08-25T06:51:18.039Z,27.02
2022-08-25T06:51:50.614Z,27.09
2022-08-25T06:52:22.630Z,26.89
2022-08-25T06:53:01.214Z,26.96
2022-08-25T06:53:34.209Z,27.07
2022-08-25T06:54:08.019Z,27.21
2022-08-25T06:54:40.909Z,27.25
2022-08-25T06:55:12.887Z,27.31
2022-08-25T06:55:44.808Z,27.35
2022-08-25T06:56:20.100Z,27.41
2022-08-25T06:56:52.389Z,27.50
2022-08-25T06:57:24.813Z,27.57
2022-08-25T06:57:58.459Z,27.63
2022-08-25T06:58:30.444Z,27.62
2022-08-25T06:59:05.199Z,27.66
2022-08-25T06:59:37.855Z,27.73
2022-08-25T07:00:15.126Z,27.79
2022-08-25T07:00:47.283Z,27.78
2022-08-25T07:01:23.388Z,27.86
2022-08-25T07:01:58.104Z,27.91
2022-08-25T07:02:30.135Z,27.97
2022-08-25T07:03:07.188Z,27.97
2022-08-25T07:03:39.441Z,28.07
2022-08-25T07:04:12.947Z,28.07
2022-08-25T07:04:46.191Z,28.09
2022-08-25T07:05:27.248Z,28.11
2022-08-25T07:06:06.485Z,28.15
2022-08-25T07:06:38.391Z,28.20
2022-08-25T07:07:10.325Z,28.21
2022-08-25T07:07:44.385Z,28.26
2022-08-25T07:08:16.281Z,28.16
2022-08-25T07:08:48.263Z,28.19
2022-08-25T07:09:21.036Z,28.23
2022-08-25T07:09:52.980Z,28.23
2022-08-25T07:10:25.949Z,28.24
2022-08-25T07:10:58.841Z,28.25
2022-08-25T07:11:34.259Z,28.30
2022-08-25T07:12:06.772Z,28.36
2022-08-25T07:12:39.922Z,28.39
2022-08-25T07:13:11.855Z,28.47
2022-08-25T07:13:45.502Z,28.52
2022-08-25T07:14:18.568Z,28.59
2022-08-25T07:15:10.129Z,28.59
2022-08-25T07:15:44.311Z,28.55